createdAt,value
2019-05-25T06:46:29.547Z,13.33
2019-05-25T06:49:12.824Z,9.10
2019-05-25T06:51:55.728Z,11.40
2019-05-25T06:54:38.135Z,9.07
2019-05-25T06:57:21.324Z,9.03
2019-05-25T07:00:04.005Z,10.50
2019-05-25T07:02:48.233Z,8.00
2019-05-25T07:05:30.693Z,13.53
2019-05-25T07:08:13.518Z,9.37
2019-05-25T07:10:56.434Z,7.50
2019-05-25T07:13:39.568Z,7.40
2019-05-25T07:16:22.252Z,9.00
2019-05-25T07:19:05.059Z,8.27
2019-05-25T07:21:48.778Z,8.27
2019-05-25T07:24:33.370Z,9.23
2019-05-25T07:27:16.478Z,11.73
2019-05-25T07:29:59.258Z,6.73
2019-05-25T07:32:42.946Z,6.30
2019-05-25T07:35:25.948Z,11.57
2019-05-25T07:38:08.756Z,10.93
2019-05-25T07:40:52.898Z,10.10
2019-05-25T07:43:35.404Z,9.40
2019-05-25T07:46:18.664Z,13.93
2019-05-25T07:49:01.316Z,10.70
2019-05-25T07:51:44.472Z,6.67
2019-05-25T07:54:27.506Z,8.50
2019-05-25T07:57:10.427Z,8.37
2019-05-25T07:59:53.455Z,6.10
2019-05-25T08:02:36.446Z,11.60
2019-05-25T08:05:19.743Z,9.77
2019-05-25T08:08:03.347Z,7.97
2019-05-25T08:10:46.337Z,6.87
2019-05-25T08:13:29.403Z,8.87
2019-05-25T08:16:12.753Z,9.23
2019-05-25T08:18:55.556Z,6.40
2019-05-25T08:21:38.131Z,8.30
2019-05-25T08:24:21.297Z,9.87
2019-05-25T08:27:04.392Z,10.43
2019-05-25T08:29:47.454Z,13.90
2019-05-25T08:32:30.382Z,7.53
2019-05-25T08:35:15.577Z,9.07
2019-05-25T08:37:58.820Z,6.47
2019-05-25T08:40:41.669Z,9.93
2019-05-25T08:43:24.478Z,8.13
2019-05-25T08:46:07.721Z,10.70
2019-05-25T08:48:50.980Z,11.80
2019-05-25T08:51:34.966Z,7.80
2019-05-25T08:54:17.837Z,10.73
2019-05-25T08:57:00.909Z,9.80
2019-05-25T08:59:44.258Z,10.50
2019-05-25T09:02:27.304Z,7.37
2019-05-25T09:05:10.051Z,8.10
2019-05-25T09:07:53.021Z,7.80
2019-05-25T09:10:35.690Z,8.80
2019-05-25T09:13:18.645Z,8.50
2019-05-25T09:16:01.246Z,13.87
2019-05-25T09:18:44.357Z,7.60
2019-05-25T09:21:26.914Z,12.10
2019-05-25T09:24:10.032Z,10.77
2019-05-25T09:26:52.945Z,11.27
2019-05-25T09:29:35.840Z,10.20
2019-05-25T09:32:18.714Z,12.33
2019-05-25T09:35:01.617Z,8.63
2019-05-25T09:37:44.014Z,8.83
2019-05-25T09:40:27.016Z,7.20
2019-05-25T09:43:09.838Z,10.60
2019-05-25T09:45:53.357Z,10.50
2019-05-25T09:48:38.078Z,13.50
2019-05-25T09:51:20.315Z,11.63
2019-05-25T09:54:03.974Z,12.90
2019-05-25T09:56:47.203Z,11.10
2019-05-25T09:59:29.554Z,11.17
2019-05-25T10:02:13.933Z,10.80
2019-05-25T10:04:57.988Z,9.27
2019-05-25T10:07:41.073Z,10.83
2019-05-25T10:10:23.780Z,11.33
2019-05-25T10:13:06.661Z,13.40
2019-05-25T10:15:50.404Z,12.43
2019-05-25T10:18:33.355Z,14.17
2019-05-25T10:21:16.066Z,16.33
2019-05-25T10:23:59.082Z,12.80
2019-05-25T10:26:41.846Z,10.70
2019-05-25T10:29:36.693Z,14.97
2019-05-25T10:32:09.748Z,10.90
2019-05-25T10:34:52.506Z,13.00
2019-05-25T10:37:36.031Z,15.00
2019-05-25T10:40:18.659Z,13.27
2019-05-25T10:43:01.904Z,12.57
2019-05-25T10:45:44.375Z,13.60
2019-05-25T10:48:27.114Z,18.53
2019-05-25T10:51:10.413Z,17.13
2019-05-25T10:53:52.949Z,16.73
2019-05-25T10:56:35.846Z,11.83
2019-05-25T10:59:18.661Z,11.40
2019-05-25T11:02:01.352Z,10.87
2019-05-25T11:04:44.326Z,12.27
2019-05-25T11:07:27.591Z,16.83
2019-05-25T11:10:11.627Z,12.50
2019-05-25T11:12:54.640Z,18.80
2019-05-25T11:15:37.814Z,13.80
2019-05-25T11:18:20.592Z,13.13
2019-05-25T11:21:03.292Z,16.30
2019-05-25T11:23:46.639Z,12.17
2019-05-25T11:26:29.357Z,19.60
2019-05-25T11:29:12.270Z,16.53
2019-05-25T11:31:59.096Z,21.87
2019-05-25T11:34:39.306Z,11.50
2019-05-25T11:37:21.925Z,15.33
2019-05-25T11:40:04.951Z,15.33
2019-05-25T11:42:48.731Z,14.57
2019-05-25T11:45:34.082Z,30.80
2019-05-25T11:48:16.908Z,17.93
2019-05-25T11:50:59.877Z,25.43
2019-05-25T11:53:43.265Z,29.10
2019-05-25T11:56:26.303Z,22.23
2019-05-25T11:59:09.983Z,25.03
2019-05-25T12:01:53.076Z,28.03
2019-05-25T12:04:37.270Z,29.00
2019-05-25T12:07:20.754Z,33.27
2019-05-25T12:10:03.451Z,28.30
2019-05-25T12:12:46.597Z,28.77
2019-05-25T12:15:29.873Z,31.93
2019-05-25T12:18:12.712Z,29.47
2019-05-25T12:20:55.500Z,26.67
2019-05-25T12:23:38.856Z,28.00
2019-05-25T12:26:21.983Z,31.23
2019-05-25T12:29:04.863Z,22.57
2019-05-25T12:31:47.618Z,18.70
2019-05-25T12:34:30.622Z,26.27
2019-05-25T12:37:13.474Z,15.77
2019-05-25T12:39:56.240Z,29.57
2019-05-25T12:42:39.700Z,16.63
2019-05-25T12:45:22.860Z,22.20
2019-05-25T12:48:07.069Z,14.43
2019-05-25T12:50:50.022Z,16.17
2019-05-25T12:53:32.854Z,11.07
2019-05-25T12:56:15.724Z,25.30
2019-05-25T12:58:58.512Z,18.43
2019-05-25T13:01:41.542Z,19.80
2019-05-25T13:04:24.203Z,13.77
2019-05-25T13:07:07.248Z,14.93
2019-05-25T13:09:49.993Z,14.00
2019-05-25T13:12:32.914Z,17.97
2019-05-25T13:15:16.521Z,11.13
2019-05-25T13:17:59.527Z,15.80
2019-05-25T13:20:44.027Z,19.37
2019-05-25T13:23:26.855Z,23.53
2019-05-25T13:26:09.597Z,17.40
2019-05-25T13:28:52.433Z,28.23
2019-05-25T13:31:35.610Z,21.10
2019-05-25T13:34:18.482Z,16.53
2019-05-25T13:37:02.006Z,19.57
2019-05-25T13:39:45.121Z,16.23
2019-05-25T13:42:27.789Z,16.33
2019-05-25T13:45:11.608Z,23.27
2019-05-25T13:47:54.535Z,21.47
2019-05-25T13:50:37.391Z,16.53
2019-05-25T13:53:21.542Z,17.73
2019-05-25T13:56:04.597Z,14.87
2019-05-25T13:58:48.001Z,11.97
2019-05-25T14:01:30.926Z,18.73
2019-05-25T14:04:13.519Z,16.67
2019-05-25T14:06:57.773Z,17.57
2019-05-25T14:09:40.574Z,13.77
2019-05-25T14:12:23.685Z,19.07
2019-05-25T14:15:06.491Z,16.67
2019-05-25T14:17:49.095Z,17.90
2019-05-25T14:20:31.726Z,15.63
2019-05-25T14:23:14.763Z,17.10
2019-05-25T14:25:57.665Z,18.13
2019-05-25T14:28:40.524Z,24.33
2019-05-25T14:31:23.221Z,23.60
2019-05-25T14:34:06.170Z,30.80
2019-05-25T14:36:48.958Z,25.30
2019-05-25T14:39:31.876Z,36.70
2019-05-25T14:42:14.640Z,20.47
2019-05-25T14:44:57.547Z,21.87
2019-05-25T14:47:40.834Z,28.40
2019-05-25T14:50:23.913Z,27.33
2019-05-25T14:53:06.817Z,26.53
2019-05-25T14:55:49.848Z,17.10
2019-05-25T14:58:32.734Z,19.93
2019-05-25T15:01:15.881Z,17.53
2019-05-25T15:03:58.414Z,29.57
2019-05-25T15:06:41.404Z,23.70
2019-05-25T15:09:24.412Z,14.63
2019-05-25T15:12:07.351Z,18.67
2019-05-25T15:14:49.867Z,18.57
2019-05-25T15:17:32.922Z,13.17
2019-05-25T15:20:16.590Z,27.43
2019-05-25T15:22:59.799Z,14.73
2019-05-25T15:25:42.477Z,10.13
2019-05-25T15:28:25.598Z,18.03
2019-05-25T15:31:08.563Z,9.67
2019-05-25T15:33:52.478Z,11.67
2019-05-25T15:36:35.171Z,13.73
2019-05-25T15:39:17.936Z,8.53
2019-05-25T15:42:00.973Z,19.60
2019-05-25T15:44:43.934Z,13.80
2019-05-25T15:47:26.574Z,14.87
2019-05-25T15:50:10.327Z,8.28
2019-05-25T15:52:56.361Z,20.65
2019-05-25T15:55:37.247Z,23.02
2019-05-25T15:58:19.818Z,10.48
2019-05-25T16:01:02.992Z,13.87
2019-05-25T16:03:46.249Z,17.50
2019-05-25T16:06:29.092Z,13.90
2019-05-25T16:09:12.585Z,12.40
2019-05-25T16:11:55.706Z,13.22
2019-05-25T16:14:38.147Z,14.40
2019-05-25T16:17:21.210Z,7.92
2019-05-25T16:20:03.956Z,8.73
2019-05-25T16:22:47.849Z,11.78
2019-05-25T16:25:30.641Z,14.07
2019-05-25T16:28:13.556Z,13.10
2019-05-25T16:30:56.430Z,12.20
2019-05-25T16:33:40.459Z,8.13
2019-05-25T16:36:23.589Z,11.65
2019-05-25T16:39:06.816Z,8.58
2019-05-25T16:41:49.490Z,18.07
2019-05-25T16:44:32.176Z,7.78
2019-05-25T16:47:15.090Z,23.27
2019-05-25T16:49:58.200Z,11.97
2019-05-25T16:52:41.080Z,14.58
2019-05-25T16:55:23.924Z,6.35
2019-05-25T16:58:07.157Z,6.05
2019-05-25T17:00:50.063Z,6.65
2019-05-25T17:03:33.604Z,6.85
2019-05-25T17:06:16.424Z,11.43
2019-05-25T17:08:59.416Z,5.72
2019-05-25T17:11:43.857Z,5.17
2019-05-25T17:14:26.645Z,4.17
2019-05-25T17:17:09.701Z,6.62
2019-05-25T17:19:53.290Z,9.93
2019-05-25T17:22:36.379Z,6.05
2019-05-25T17:25:19.191Z,5.78
2019-05-25T17:28:02.010Z,5.47
2019-05-25T17:30:48.772Z,2.67
2019-05-25T17:33:45.521Z,4.42
2019-05-25T17:36:16.133Z,4.15
2019-05-25T17:38:59.255Z,3.08
2019-05-25T17:41:42.288Z,4.87
2019-05-25T17:44:25.210Z,3.85
2019-05-25T17:47:08.083Z,8.43
2019-05-25T17:49:50.972Z,7.42
2019-05-25T17:52:33.640Z,4.33
2019-05-25T17:55:16.550Z,3.62
2019-05-25T17:57:59.126Z,2.70
2019-05-25T18:00:48.058Z,5.53
2019-05-25T18:03:31.029Z,5.30
2019-05-25T18:06:14.243Z,5.28
2019-05-25T18:08:57.819Z,4.37
2019-05-25T18:11:40.736Z,4.90
2019-05-25T18:14:24.723Z,4.85
2019-05-25T18:17:09.850Z,8.05
2019-05-25T18:19:52.494Z,3.85
2019-05-25T18:22:35.673Z,3.00
2019-05-25T18:25:19.198Z,2.87
2019-05-25T18:28:02.513Z,2.33
2019-05-25T18:30:45.493Z,6.42
2019-05-25T18:33:29.733Z,5.20
2019-05-25T18:36:12.534Z,5.47
2019-05-25T18:38:56.237Z,3.98
2019-05-25T18:41:39.505Z,5.58
2019-05-25T18:44:22.547Z,5.55
2019-05-25T18:47:06.285Z,2.10
